This is the latest recevied weather packets stored in our database for station/object dl1wer-13. If no packets are shown the sender has not sent any weather packets the latest 10 day(s).
| Time | Temp. | Humidity | Pressure | Rain* | Wind** | Luminosity | Snow |
|---|---|---|---|---|---|---|---|
| 1777451417 | 12.78° C | 50% | 1045.9 hPa | 0 mm | - | - | - |
| 1777450816 | 12.22° C | 52% | 1046 hPa | 0 mm | - | - | - |
| 1777450216 | 11.67° C | 52% | 1046.3 hPa | 0 mm | - | - | - |
| 1777449616 | 11.67° C | 54% | 1046 hPa | 0 mm | - | - | - |
| 1777448416 | 11.11° C | 55% | 1045.9 hPa | 0 mm | - | - | - |
| 1777447816 | 11.11° C | 56% | 1045.7 hPa | 0 mm | - | - | - |
| 1777447216 | 10.56° C | 58% | 1045.5 hPa | 0 mm | - | - | - |
| 1777446616 | 10.56° C | 58% | 1045.9 hPa | 0 mm | - | - | - |
| 1777446016 | 10.56° C | 58% | 1045.8 hPa | 0 mm | - | - | - |
| 1777445416 | 10.56° C | 59% | 1045.8 hPa | 0 mm | - | - | - |
| 1777444816 | 10° C | 59% | 1045.8 hPa | 0 mm | - | - | - |
| 1777444217 | 10° C | 59% | 1045.5 hPa | 0 mm | - | - | - |
| 1777443616 | 10° C | 60% | 1045.5 hPa | 0 mm | - | - | - |
| 1777443016 | 10° C | 60% | 1045.4 hPa | 0 mm | - | - | - |
| 1777442416 | 10° C | 60% | 1045.4 hPa | 0 mm | - | - | - |
| 1777441815 | 9.44° C | 60% | 1045.6 hPa | 0 mm | - | - | - |
| 1777441215 | 9.44° C | 60% | 1045.2 hPa | 0 mm | - | - | - |
| 1777440616 | 9.44° C | 61% | 1045.2 hPa | 0 mm | - | - | - |
| 1777440016 | 9.44° C | 61% | 1045 hPa | 0 mm | - | - | - |
| 1777439415 | 9.44° C | 61% | 1045 hPa | 0 mm | - | - | - |
| 1777438816 | 9.44° C | 61% | 1044.6 hPa | 0 mm | - | - | - |
| 1777438215 | 9.44° C | 61% | 1044.6 hPa | 0 mm | - | - | - |
| 1777437616 | 9.44° C | 60% | 1044.6 hPa | 0 mm | - | - | - |
| 1777437016 | 9.44° C | 60% | 1044.6 hPa | 0 mm | - | - | - |
| 1777419017 | 12.22° C | 47% | 1044 hPa | 0 mm | - | - | - |
* Rain latest hour (hover to see other rain measurements)
** Current wind speed in m/s (hover to see current wind gust speed)